createdAt,value
2019-01-03T00:01:27.450Z,2.30
2019-01-03T00:04:27.477Z,2.67
2019-01-03T00:07:26.069Z,2.50
2019-01-03T00:10:33.109Z,1.97
2019-01-03T00:13:21.006Z,2.97
2019-01-03T00:16:05.527Z,2.33
2019-01-03T00:19:12.522Z,2.77
2019-01-03T00:22:19.674Z,2.30
2019-01-03T00:25:26.730Z,2.70
2019-01-03T00:28:36.013Z,2.53
2019-01-03T00:31:35.605Z,2.37
2019-01-03T00:34:42.889Z,2.53
2019-01-03T00:37:49.971Z,2.60
2019-01-03T00:40:57.275Z,2.63
2019-01-03T00:43:54.582Z,2.53
2019-01-03T00:47:01.655Z,2.33
2019-01-03T00:50:01.051Z,3.00
2019-01-03T00:53:00.865Z,2.80
2019-01-03T00:56:01.241Z,2.77
2019-01-03T00:59:01.415Z,2.95
2019-01-03T01:02:01.208Z,2.77
2019-01-03T01:05:00.610Z,3.10
2019-01-03T01:08:00.131Z,2.27
2019-01-03T01:11:00.282Z,2.10
2019-01-03T01:13:59.753Z,2.93
2019-01-03T01:16:59.306Z,2.90
2019-01-03T01:19:58.303Z,3.13
2019-01-03T01:22:58.011Z,3.20
2019-01-03T01:25:52.620Z,5.33
2019-01-03T01:28:54.974Z,3.70
2019-01-03T01:31:55.096Z,4.07
2019-01-03T01:34:58.046Z,5.03
2019-01-03T01:37:57.895Z,4.25
2019-01-03T01:40:58.117Z,4.40
2019-01-03T01:43:57.778Z,5.15
2019-01-03T01:46:57.411Z,4.43
2019-01-03T01:50:03.058Z,6.20
2019-01-03T01:53:05.554Z,3.60
2019-01-03T01:56:04.302Z,3.20
2019-01-03T01:59:03.785Z,3.40
2019-01-03T02:02:06.012Z,3.45
2019-01-03T02:05:05.706Z,3.77
2019-01-03T02:07:58.575Z,4.17
2019-01-03T02:10:57.986Z,4.87
2019-01-03T02:13:54.607Z,5.77
2019-01-03T02:16:54.494Z,5.00
2019-01-03T02:19:54.614Z,4.65
2019-01-03T02:22:48.317Z,3.83
2019-01-03T02:25:42.004Z,4.22
2019-01-03T02:28:35.890Z,4.35
2019-01-03T02:31:36.160Z,3.52
2019-01-03T02:34:34.401Z,3.87
2019-01-03T02:37:34.568Z,4.70
2019-01-03T02:40:28.939Z,3.47
2019-01-03T02:43:28.916Z,3.33
2019-01-03T02:46:18.995Z,3.67
2019-01-03T02:49:18.856Z,3.05
2019-01-03T02:52:18.683Z,3.47
2019-01-03T02:55:19.104Z,2.60
2019-01-03T02:58:18.784Z,3.58
2019-01-03T03:01:18.350Z,4.50
2019-01-03T03:04:18.005Z,2.90
2019-01-03T03:07:17.904Z,2.50
2019-01-03T03:10:20.710Z,2.67
2019-01-03T03:13:20.519Z,2.58
2019-01-03T03:16:23.626Z,2.30
2019-01-03T03:19:22.661Z,2.27
2019-01-03T03:22:22.298Z,3.23
2019-01-03T03:25:22.303Z,2.43
2019-01-03T03:28:21.770Z,2.60
2019-01-03T03:31:21.457Z,2.50
2019-01-03T03:34:20.990Z,2.37
2019-01-03T03:37:20.987Z,2.40
2019-01-03T03:40:20.422Z,2.47
2019-01-03T03:43:25.922Z,2.60
2019-01-03T03:46:19.243Z,1.93
2019-01-03T03:49:19.010Z,2.23
2019-01-03T03:52:19.118Z,1.80
2019-01-03T03:55:19.704Z,4.10
2019-01-03T03:58:19.957Z,2.53
2019-01-03T04:01:20.272Z,2.98
2019-01-03T04:04:19.868Z,1.97
2019-01-03T04:07:19.964Z,1.83
2019-01-03T04:10:19.712Z,2.00
2019-01-03T04:13:19.091Z,2.13
2019-01-03T04:16:18.929Z,2.23
2019-01-03T04:19:18.593Z,2.03
2019-01-03T04:22:18.131Z,2.27
2019-01-03T04:25:20.659Z,2.20
2019-01-03T04:28:20.320Z,2.10
2019-01-03T04:31:19.247Z,2.33
2019-01-03T04:34:19.507Z,1.90
2019-01-03T04:37:19.103Z,1.60
2019-01-03T04:40:09.165Z,2.20
2019-01-03T04:43:10.566Z,2.20
2019-01-03T04:46:10.670Z,2.10
2019-01-03T04:49:04.512Z,2.27
2019-01-03T04:52:04.236Z,1.83
2019-01-03T04:55:04.660Z,2.17
2019-01-03T04:58:04.614Z,1.83
2019-01-03T05:01:05.094Z,2.63
2019-01-03T05:04:07.864Z,2.33
2019-01-03T05:07:10.147Z,2.70
2019-01-03T05:10:00.882Z,7.87
2019-01-03T05:13:00.613Z,6.80
2019-01-03T05:16:00.783Z,4.57
2019-01-03T05:19:00.190Z,3.22
2019-01-03T05:22:00.452Z,3.92
2019-01-03T05:24:59.831Z,4.60
2019-01-03T05:27:59.854Z,3.45
2019-01-03T05:30:59.443Z,3.13
2019-01-03T05:33:58.910Z,2.87
2019-01-03T05:36:53.905Z,3.60
2019-01-03T05:39:47.467Z,2.70
2019-01-03T05:42:38.290Z,2.67
2019-01-03T05:45:38.186Z,2.58
2019-01-03T05:48:41.008Z,2.75
2019-01-03T05:51:45.263Z,2.47
2019-01-03T05:54:52.321Z,2.42
2019-01-03T05:57:59.401Z,2.60
2019-01-03T06:00:58.990Z,3.30
2019-01-03T06:04:06.051Z,2.97
2019-01-03T06:07:13.118Z,3.20
2019-01-03T06:10:20.419Z,2.20
2019-01-03T06:13:27.483Z,2.87
2019-01-03T06:16:34.531Z,2.80
2019-01-03T06:19:41.598Z,2.37
2019-01-03T06:22:48.659Z,4.30
2019-01-03T06:25:55.708Z,3.10
2019-01-03T06:29:02.770Z,2.20
2019-01-03T06:32:10.060Z,2.60
2019-01-03T06:35:17.142Z,2.80
2019-01-03T06:38:24.193Z,2.75
2019-01-03T06:41:31.251Z,2.67
2019-01-03T06:44:38.307Z,2.70
2019-01-03T06:47:45.361Z,3.30
2019-01-03T06:50:37.689Z,2.37
2019-01-03T06:53:37.911Z,2.13
2019-01-03T06:56:40.574Z,1.77
2019-01-03T06:59:40.006Z,2.98
2019-01-03T07:02:39.773Z,2.50
2019-01-03T07:05:40.210Z,2.20
2019-01-03T07:08:46.388Z,2.50
2019-01-03T07:11:46.480Z,2.00
2019-01-03T07:14:45.971Z,2.37
2019-01-03T07:17:42.859Z,1.80
2019-01-03T07:20:43.090Z,2.00
2019-01-03T07:23:42.618Z,1.90
2019-01-03T07:26:45.046Z,1.65
2019-01-03T07:29:41.720Z,2.30
2019-01-03T07:32:48.105Z,1.83
2019-01-03T07:35:48.180Z,1.87
2019-01-03T07:38:48.039Z,1.70
2019-01-03T07:41:47.943Z,2.73
2019-01-03T07:44:53.350Z,2.87
2019-01-03T07:47:51.461Z,2.50
2019-01-03T07:50:51.578Z,2.77
2019-01-03T07:53:51.352Z,2.65
2019-01-03T07:56:50.822Z,2.00
2019-01-03T07:59:55.342Z,2.00
2019-01-03T08:02:55.070Z,3.23
2019-01-03T08:05:54.905Z,2.15
2019-01-03T08:08:54.984Z,2.20
2019-01-03T08:11:55.321Z,1.93
2019-01-03T08:14:46.118Z,1.90
2019-01-03T08:17:46.458Z,2.10
2019-01-03T08:20:45.929Z,1.83
2019-01-03T08:23:48.951Z,2.27
2019-01-03T08:26:49.250Z,2.00
2019-01-03T08:29:49.092Z,2.40
2019-01-03T08:32:55.217Z,2.20
2019-01-03T08:35:55.008Z,2.10
2019-01-03T08:38:55.094Z,1.60
2019-01-03T08:41:51.870Z,1.93
2019-01-03T08:44:48.749Z,2.50
2019-01-03T08:47:48.711Z,2.20
2019-01-03T08:50:48.428Z,2.97
2019-01-03T08:53:47.887Z,2.90
2019-01-03T08:56:47.310Z,3.40
2019-01-03T08:59:46.883Z,3.73
2019-01-03T09:02:46.283Z,5.30
2019-01-03T09:05:46.035Z,5.20
2019-01-03T09:08:45.474Z,8.07
2019-01-03T09:11:42.655Z,7.23
2019-01-03T09:14:30.489Z,7.27
2019-01-03T09:17:18.314Z,8.80
2019-01-03T09:20:25.458Z,8.53
2019-01-03T09:23:32.525Z,8.30
2019-01-03T09:26:39.601Z,9.53
2019-01-03T09:29:46.642Z,8.97
2019-01-03T09:32:53.983Z,10.57
2019-01-03T09:36:01.427Z,9.50
2019-01-03T09:39:27.738Z,10.70
2019-01-03T09:42:34.810Z,12.07
2019-01-03T09:45:23.031Z,11.57
2019-01-03T09:48:04.204Z,12.67
2019-01-03T09:50:44.634Z,11.17
2019-01-03T09:53:25.429Z,12.07
2019-01-03T09:56:06.217Z,12.07
2019-01-03T09:58:46.827Z,11.27
2019-01-03T10:01:27.682Z,11.27
2019-01-03T10:04:08.774Z,11.73
2019-01-03T10:06:49.686Z,13.00
2019-01-03T10:09:30.793Z,10.90
2019-01-03T10:12:11.430Z,12.30
2019-01-03T10:14:51.841Z,12.53
2019-01-03T10:17:32.414Z,12.13
2019-01-03T10:20:13.007Z,13.10
2019-01-03T10:22:54.163Z,12.83
2019-01-03T10:28:24.775Z,11.63
2019-01-03T10:31:05.758Z,12.87
2019-01-03T10:33:46.578Z,12.23
2019-01-03T10:36:27.572Z,11.00
2019-01-03T10:39:08.606Z,11.93
2019-01-03T10:41:49.330Z,12.50
2019-01-03T10:44:30.252Z,11.47
2019-01-03T10:47:10.620Z,10.60
2019-01-03T10:49:51.134Z,13.30
2019-01-03T10:52:31.524Z,12.10
2019-01-03T10:55:12.370Z,11.50
2019-01-03T10:57:52.801Z,12.33
2019-01-03T11:00:33.328Z,11.33
2019-01-03T11:03:13.946Z,11.50
2019-01-03T11:05:54.935Z,11.63
2019-01-03T11:08:35.719Z,11.30
2019-01-03T11:11:16.654Z,12.83
2019-01-03T11:13:57.627Z,11.70
2019-01-03T11:16:38.120Z,12.30
2019-01-03T11:19:18.825Z,11.47
2019-01-03T11:21:59.542Z,11.73
2019-01-03T11:24:40.701Z,12.40
2019-01-03T11:27:21.434Z,11.90
2019-01-03T11:30:02.228Z,12.60
2019-01-03T11:32:43.235Z,12.10
2019-01-03T11:35:24.382Z,11.83
2019-01-03T11:38:05.256Z,11.60
2019-01-03T11:40:45.934Z,11.00
2019-01-03T11:43:26.492Z,11.30
2019-01-03T11:46:07.180Z,11.87
2019-01-03T11:48:47.874Z,11.43
2019-01-03T11:51:28.554Z,11.63
2019-01-03T11:54:09.376Z,11.40
2019-01-03T11:56:50.171Z,10.30
2019-01-03T11:59:31.012Z,10.47
2019-01-03T12:02:12.527Z,10.60
2019-01-03T12:04:53.865Z,10.10
2019-01-03T12:07:34.498Z,12.17
2019-01-03T12:10:15.558Z,9.83
2019-01-03T12:12:56.422Z,11.10
2019-01-03T12:15:37.029Z,11.97
2019-01-03T12:18:17.391Z,10.87
2019-01-03T12:20:58.353Z,12.60
2019-01-03T12:23:39.526Z,11.17
2019-01-03T12:26:20.234Z,11.30
2019-01-03T12:29:00.885Z,10.27
2019-01-03T12:31:41.763Z,9.77
2019-01-03T12:34:22.791Z,11.90
2019-01-03T12:37:03.379Z,10.20
2019-01-03T12:39:43.794Z,10.57
2019-01-03T12:42:24.158Z,9.30
2019-01-03T12:45:04.886Z,10.43
2019-01-03T12:47:45.958Z,10.77
2019-01-03T12:50:26.822Z,10.77
2019-01-03T12:53:07.571Z,10.50
2019-01-03T12:55:48.161Z,10.07
2019-01-03T12:58:29.046Z,9.43
2019-01-03T13:01:09.762Z,10.37
2019-01-03T13:03:51.247Z,11.10
2019-01-03T13:06:32.072Z,10.17
2019-01-03T13:09:17.639Z,10.03
2019-01-03T13:11:58.522Z,10.07
2019-01-03T13:14:39.051Z,8.90
2019-01-03T13:17:19.743Z,9.73
2019-01-03T13:20:00.461Z,10.87
2019-01-03T13:22:41.360Z,9.83
2019-01-03T13:25:22.092Z,10.40
2019-01-03T13:28:03.276Z,9.87
2019-01-03T13:30:43.994Z,9.70
2019-01-03T13:33:24.594Z,11.83
2019-01-03T13:36:05.295Z,12.03
2019-01-03T13:38:46.261Z,10.30
2019-01-03T13:41:26.935Z,10.20
2019-01-03T13:44:07.427Z,10.67
2019-01-03T13:46:48.427Z,10.87
2019-01-03T13:49:29.245Z,10.43
2019-01-03T13:52:09.960Z,10.43
2019-01-03T13:54:51.039Z,10.40
2019-01-03T13:57:31.394Z,10.70
2019-01-03T14:00:12.179Z,11.67
2019-01-03T14:02:53.051Z,10.70
2019-01-03T14:05:33.651Z,9.70
2019-01-03T14:08:14.532Z,10.77
2019-01-03T14:10:55.539Z,12.33
2019-01-03T14:13:36.512Z,10.27
2019-01-03T14:16:17.866Z,9.90
2019-01-03T14:18:58.375Z,9.60
2019-01-03T14:21:38.964Z,10.90
2019-01-03T14:24:19.770Z,10.63
2019-01-03T14:27:00.523Z,12.97
2019-01-03T14:29:41.328Z,11.50
2019-01-03T14:32:22.248Z,11.30
2019-01-03T14:35:02.938Z,12.20
2019-01-03T14:37:43.679Z,12.60
2019-01-03T14:40:24.627Z,12.30
2019-01-03T14:43:05.202Z,11.77
2019-01-03T14:45:46.224Z,13.10
2019-01-03T14:48:26.656Z,12.97
2019-01-03T14:51:07.427Z,11.33
2019-01-03T14:53:48.168Z,12.63
2019-01-03T14:56:29.032Z,11.77
2019-01-03T14:59:09.937Z,12.40
2019-01-03T15:01:50.867Z,12.77
2019-01-03T15:04:31.510Z,14.03
2019-01-03T15:07:12.168Z,13.87
2019-01-03T15:09:53.112Z,14.60
2019-01-03T15:12:33.918Z,16.00
2019-01-03T15:15:14.650Z,15.10
2019-01-03T15:17:55.606Z,15.30
2019-01-03T15:20:36.655Z,15.77
2019-01-03T15:23:17.057Z,14.97
2019-01-03T15:25:57.595Z,13.30
2019-01-03T15:28:38.416Z,15.23
2019-01-03T15:31:19.140Z,13.97
2019-01-03T15:34:00.016Z,14.03
2019-01-03T15:36:41.261Z,12.70
2019-01-03T15:39:22.407Z,13.80
2019-01-03T15:42:03.706Z,13.00
2019-01-03T15:44:44.183Z,14.30
2019-01-03T15:47:25.128Z,14.43
2019-01-03T15:50:06.040Z,15.43
2019-01-03T15:52:46.699Z,14.70
2019-01-03T15:55:27.455Z,14.10
2019-01-03T15:58:08.317Z,14.50
2019-01-03T16:00:49.235Z,14.63
2019-01-03T16:03:29.649Z,15.03
2019-01-03T16:06:10.410Z,14.37
2019-01-03T16:08:51.186Z,14.30
2019-01-03T16:11:31.857Z,15.53
2019-01-03T16:14:32.084Z,17.10
2019-01-03T16:17:13.346Z,18.00
2019-01-03T16:19:54.224Z,19.17
2019-01-03T16:22:34.865Z,18.23
2019-01-03T16:25:15.686Z,17.60
2019-01-03T16:27:56.687Z,18.73
2019-01-03T16:30:37.251Z,19.10
2019-01-03T16:33:18.183Z,24.37
2019-01-03T16:35:58.710Z,43.23
2019-01-03T16:41:23.787Z,65.87
2019-01-03T16:44:04.650Z,28.07
2019-01-03T16:46:45.452Z,19.00
2019-01-03T16:49:26.087Z,17.60
2019-01-03T16:52:06.751Z,19.90
2019-01-03T16:54:47.540Z,19.83
2019-01-03T16:57:28.297Z,21.77
2019-01-03T17:00:09.256Z,20.07
2019-01-03T17:02:50.007Z,19.53
2019-01-03T17:05:31.194Z,25.20
2019-01-03T17:08:11.571Z,20.10
2019-01-03T17:10:52.495Z,20.43
2019-01-03T17:13:33.319Z,22.37
2019-01-03T17:16:13.991Z,18.10
2019-01-03T17:18:54.832Z,21.27
2019-01-03T17:21:35.715Z,20.73
2019-01-03T17:24:16.446Z,20.87
2019-01-03T17:26:57.506Z,20.80
2019-01-03T17:29:38.101Z,19.60
2019-01-03T17:32:18.743Z,19.87
2019-01-03T17:34:59.905Z,20.60
2019-01-03T17:37:41.248Z,21.53
2019-01-03T17:40:22.458Z,20.53
2019-01-03T17:43:03.038Z,21.20
2019-01-03T17:45:43.668Z,22.03
2019-01-03T17:48:24.910Z,21.97
2019-01-03T17:51:05.679Z,20.50
2019-01-03T17:53:46.462Z,18.77
2019-01-03T17:56:26.839Z,19.00
2019-01-03T17:59:07.686Z,20.03
2019-01-03T18:01:48.704Z,19.90
2019-01-03T18:04:28.968Z,19.90
2019-01-03T18:07:09.846Z,18.60
2019-01-03T18:09:50.223Z,19.80
2019-01-03T18:12:31.060Z,20.60
2019-01-03T18:15:11.946Z,19.40
2019-01-03T18:17:52.759Z,17.63
2019-01-03T18:20:33.524Z,20.70
2019-01-03T18:23:14.108Z,21.23
2019-01-03T18:25:55.002Z,19.87
2019-01-03T18:28:36.395Z,20.70
2019-01-03T18:31:16.910Z,22.07
2019-01-03T18:33:57.719Z,19.43
2019-01-03T18:36:38.067Z,20.17
2019-01-03T18:39:18.614Z,19.83
2019-01-03T18:44:48.632Z,20.00
2019-01-03T18:47:29.487Z,18.33
2019-01-03T18:50:10.073Z,19.80
2019-01-03T18:52:50.852Z,16.97
2019-01-03T18:55:31.674Z,20.10
2019-01-03T18:58:12.489Z,19.40
2019-01-03T19:00:53.080Z,19.47
2019-01-03T19:03:33.763Z,19.07
2019-01-03T19:06:14.432Z,18.13
2019-01-03T19:08:55.155Z,18.17
2019-01-03T19:11:36.060Z,17.10
2019-01-03T19:14:16.779Z,17.80
2019-01-03T19:16:57.151Z,16.50
2019-01-03T19:19:38.111Z,13.40
2019-01-03T19:22:18.743Z,15.00
2019-01-03T19:24:59.764Z,12.80
2019-01-03T19:27:40.372Z,13.63
2019-01-03T19:30:21.394Z,14.70
2019-01-03T19:33:02.283Z,13.90
2019-01-03T19:35:42.948Z,15.57
2019-01-03T19:38:24.145Z,12.90
2019-01-03T19:41:04.937Z,12.00
2019-01-03T19:43:45.971Z,14.63
2019-01-03T19:46:26.534Z,14.80
2019-01-03T19:49:07.504Z,13.67
2019-01-03T19:51:48.005Z,13.43
2019-01-03T19:54:29.024Z,11.50
2019-01-03T19:57:09.455Z,13.77
2019-01-03T19:59:50.126Z,12.30
2019-01-03T20:02:31.159Z,12.77
2019-01-03T20:05:12.003Z,13.93
2019-01-03T20:07:52.785Z,14.70
2019-01-03T20:10:33.810Z,13.80
2019-01-03T20:13:14.927Z,16.27
2019-01-03T20:15:56.096Z,14.10
2019-01-03T20:18:36.947Z,15.97
2019-01-03T20:21:17.731Z,14.57
2019-01-03T20:23:58.478Z,15.00
2019-01-03T20:26:39.462Z,17.53
2019-01-03T20:29:20.490Z,15.37
2019-01-03T20:32:00.795Z,16.60
2019-01-03T20:34:41.668Z,14.20
2019-01-03T20:37:22.603Z,14.73
2019-01-03T20:40:03.859Z,15.77
2019-01-03T20:42:44.719Z,14.27
2019-01-03T20:45:25.379Z,12.67
2019-01-03T20:48:06.257Z,13.17
2019-01-03T20:50:46.918Z,12.77
2019-01-03T20:53:27.875Z,12.30
2019-01-03T20:56:09.093Z,11.20
2019-01-03T20:58:50.125Z,11.20
2019-01-03T21:01:30.407Z,11.80
2019-01-03T21:04:11.095Z,10.90
2019-01-03T21:06:51.653Z,10.23
2019-01-03T21:09:32.750Z,11.33
2019-01-03T21:12:13.398Z,9.23
2019-01-03T21:14:53.855Z,11.03
2019-01-03T21:17:34.383Z,10.50
2019-01-03T21:20:14.740Z,10.47
2019-01-03T21:22:55.268Z,11.33
2019-01-03T21:25:35.980Z,9.80
2019-01-03T21:28:16.897Z,9.80
2019-01-03T21:30:57.404Z,10.90
2019-01-03T21:33:38.304Z,8.80
2019-01-03T21:36:19.452Z,9.00
2019-01-03T21:38:59.974Z,9.10
2019-01-03T21:41:40.562Z,8.33
2019-01-03T21:44:21.082Z,8.93
2019-01-03T21:47:02.100Z,8.40
2019-01-03T21:49:42.423Z,7.63
2019-01-03T21:52:23.302Z,9.40
2019-01-03T21:55:04.436Z,8.87
2019-01-03T21:57:45.249Z,7.77
2019-01-03T22:00:24.406Z,8.80
2019-01-03T22:03:12.403Z,9.67
2019-01-03T22:06:00.634Z,7.60
2019-01-03T22:08:48.614Z,7.93
2019-01-03T22:11:36.846Z,7.43
2019-01-03T22:14:24.806Z,7.90
2019-01-03T22:17:12.786Z,7.80
2019-01-03T22:20:00.826Z,8.33
2019-01-03T22:22:48.826Z,8.50
2019-01-03T22:25:36.808Z,6.53
2019-01-03T22:28:25.364Z,8.23
2019-01-03T22:31:13.340Z,9.30
2019-01-03T22:34:01.550Z,9.07
2019-01-03T22:36:49.529Z,7.90
2019-01-03T22:39:37.591Z,7.90
2019-01-03T22:45:33.773Z,8.30
2019-01-03T22:48:21.949Z,7.63
2019-01-03T22:51:03.047Z,8.07
2019-01-03T22:53:43.754Z,7.83
2019-01-03T22:56:24.444Z,6.90
2019-01-03T22:59:05.243Z,7.50
2019-01-03T23:01:46.083Z,7.77
2019-01-03T23:04:26.922Z,7.53
2019-01-03T23:07:07.742Z,6.10
2019-01-03T23:09:36.570Z,7.43
2019-01-03T23:12:24.696Z,8.77
2019-01-03T23:15:12.653Z,7.27
2019-01-03T23:18:00.645Z,8.33
2019-01-03T23:20:48.629Z,8.90
2019-01-03T23:23:36.923Z,9.03
2019-01-03T23:26:24.904Z,10.03
2019-01-03T23:29:13.209Z,8.40
2019-01-03T23:32:01.193Z,9.70
2019-01-03T23:34:49.239Z,9.13
2019-01-03T23:37:37.478Z,9.13
2019-01-03T23:40:26.863Z,8.80
2019-01-03T23:43:15.474Z,8.90
2019-01-03T23:46:03.457Z,9.40
2019-01-03T23:48:44.810Z,10.07
2019-01-03T23:51:23.858Z,8.30
2019-01-03T23:54:12.082Z,9.10
2019-01-03T23:57:00.148Z,9.37
2019-01-03T23:59:48.121Z,9.27
